Time;durP1;ratioP1;P1;durP2;ratioP2;P2;SDS_P1;SDS_P2;PMS_P1;PMS_P2;Temp;Humidity;BMP_temperature;BMP_pressure;BME280_temperature;BME280_humidity;BME280_pressure;Samples;Min_cycle;Max_cycle;Signal;HPM_P1;HPM_P2
2022/02/27 00:00:06;;;;;;;;;;;4.00;99.90;;;;;;4179662;28;19991;-56
2022/02/27 00:02:08;;;;;;;;;;;3.90;99.90;;;;;;4169798;28;20345;-56
2022/02/27 00:04:10;;;;;;;;;;;3.80;99.90;;;;;;4166875;28;19999;-56
2022/02/27 00:06:12;;;;;;;;;;;3.70;99.90;;;;;;4178289;28;19936;-56
2022/02/27 00:08:14;;;;;;;;;;;3.80;99.90;;;;;;4172690;28;19964;-55
2022/02/27 00:10:19;;;;;;;;;;;3.80;99.90;;;;;;4172853;28;19928;-56
2022/02/27 00:12:21;;;;;;;;;;;3.80;99.90;;;;;;4178959;28;19948;-56
2022/02/27 00:14:23;;;;;;;;;;;3.80;99.90;;;;;;4176537;28;20389;-55
2022/02/27 00:16:25;;;;;;;;;;;3.80;99.90;;;;;;4171461;28;19971;-56
2022/02/27 00:18:27;;;;;;;;;;;3.80;99.90;;;;;;4175514;28;19928;-56
2022/02/27 00:20:29;;;;;;;;;;;3.80;99.90;;;;;;4172457;28;19926;-55
2022/02/27 00:22:32;;;;;;;;;;;3.80;99.90;;;;;;4172514;28;19991;-56
2022/02/27 00:24:34;;;;;;;;;;;3.80;99.90;;;;;;4178642;28;19924;-54
2022/02/27 00:26:36;;;;;;;;;;;3.80;99.90;;;;;;4174216;28;19933;-57
2022/02/27 00:28:39;;;;;;;;;;;3.80;99.90;;;;;;4181638;28;19952;-55
2022/02/27 00:30:42;;;;;;;;;;;3.80;99.90;;;;;;4165698;28;19929;-55
2022/02/27 00:32:44;;;;;;;;;;;3.80;99.90;;;;;;4172536;28;19932;-56
2022/02/27 00:34:46;;;;;;;;;;;3.70;99.90;;;;;;4175414;28;19929;-56
2022/02/27 00:36:51;;;;;;;;;;;3.70;99.90;;;;;;4167547;28;20297;-56
2022/02/27 00:38:53;;;;;;;;;;;3.70;99.90;;;;;;4169142;28;19925;-55
2022/02/27 00:40:55;;;;;;;;;;;3.80;99.90;;;;;;4171610;28;19953;-56
2022/02/27 00:42:56;;;;;;;;;;;3.80;99.90;;;;;;4176242;28;19925;-55
2022/02/27 00:44:58;;;;;;;;;;;3.80;99.90;;;;;;4176119;28;19936;-55
2022/02/27 00:47:00;;;;;;;;;;;3.70;99.90;;;;;;4162293;28;19933;-56
2022/02/27 00:49:02;;;;;;;;;;;3.70;99.90;;;;;;4174346;28;19929;-55
2022/02/27 00:51:04;;;;;;;;;;;3.70;99.90;;;;;;4174914;28;19929;-55
2022/02/27 00:53:08;;;;;;;;;;;3.60;99.90;;;;;;4178957;28;19992;-56
2022/02/27 00:55:10;;;;;;;;;;;3.50;99.90;;;;;;4177042;28;19924;-56
2022/02/27 00:57:11;;;;;;;;;;;3.60;99.90;;;;;;4177063;28;19933;-55
2022/02/27 00:59:13;;;;;;;;;;;3.60;99.90;;;;;;4178776;28;19972;-56
2022/02/27 01:01:16;;;;;;;;;;;3.70;99.90;;;;;;4176811;28;19928;-55
2022/02/27 01:03:18;;;;;;;;;;;3.70;99.90;;;;;;4175816;28;20019;-56
2022/02/27 01:05:20;;;;;;;;;;;3.70;99.90;;;;;;4179158;28;19933;-56
2022/02/27 01:07:22;;;;;;;;;;;3.70;99.90;;;;;;4174636;28;19929;-56
2022/02/27 01:09:24;;;;;;;;;;;3.60;99.90;;;;;;4175985;28;19979;-55
2022/02/27 01:11:26;;;;;;;;;;;3.60;99.90;;;;;;4178138;28;19955;-56
2022/02/27 01:13:28;;;;;;;;;;;3.50;99.90;;;;;;4175372;28;19928;-56
2022/02/27 01:15:30;;;;;;;;;;;3.60;99.90;;;;;;4175803;28;19929;-55
2022/02/27 01:17:32;;;;;;;;;;;3.60;99.90;;;;;;4176795;28;20436;-55
2022/02/27 01:19:34;;;;;;;;;;;3.60;99.90;;;;;;4170448;28;20385;-55
2022/02/27 01:21:38;;;;;;;;;;;3.60;99.90;;;;;;4163293;28;20383;-56
2022/02/27 01:23:40;;;;;;;;;;;3.60;99.90;;;;;;4176944;28;19974;-55
2022/02/27 01:25:42;;;;;;;;;;;3.70;99.90;;;;;;4175172;28;19980;-55
2022/02/27 01:27:44;;;;;;;;;;;3.70;99.90;;;;;;4176898;28;19925;-55
2022/02/27 01:29:46;;;;;;;;;;;3.70;99.90;;;;;;4168201;28;19979;-56
2022/02/27 01:31:48;;;;;;;;;;;3.60;99.90;;;;;;4171342;28;19932;-55
2022/02/27 01:33:50;;;;;;;;;;;3.60;99.90;;;;;;4176820;28;19933;-55
2022/02/27 01:35:52;;;;;;;;;;;3.60;99.90;;;;;;4168800;28;19929;-56
2022/02/27 01:37:54;;;;;;;;;;;3.50;99.90;;;;;;4169356;28;19933;-55
2022/02/27 01:39:56;;;;;;;;;;;3.50;99.90;;;;;;4162388;28;19976;-56
2022/02/27 01:41:57;;;;;;;;;;;3.50;99.90;;;;;;4176048;28;19998;-55
2022/02/27 01:43:59;;;;;;;;;;;3.50;99.90;;;;;;4175766;28;20388;-56
2022/02/27 01:46:01;;;;;;;;;;;3.60;99.90;;;;;;4177578;28;20333;-56
2022/02/27 01:48:03;;;;;;;;;;;3.40;99.90;;;;;;4172857;28;19983;-55
2022/02/27 01:50:06;;;;;;;;;;;3.50;99.90;;;;;;4167549;28;19970;-56
2022/02/27 01:52:08;;;;;;;;;;;3.50;99.90;;;;;;4167543;28;19996;-55
2022/02/27 01:54:10;;;;;;;;;;;3.40;99.90;;;;;;4176236;28;19929;-55
2022/02/27 01:56:12;;;;;;;;;;;3.40;99.90;;;;;;4176358;28;19972;-56
2022/02/27 01:58:16;;;;;;;;;;;3.50;99.90;;;;;;4173966;28;19928;-56
2022/02/27 02:00:18;;;;;;;;;;;3.50;99.90;;;;;;4174956;28;20022;-56
2022/02/27 02:02:20;;;;;;;;;;;3.50;99.90;;;;;;4175653;28;19929;-56
2022/02/27 02:04:22;;;;;;;;;;;3.50;99.90;;;;;;4177920;28;19928;-56
2022/02/27 02:06:25;;;;;;;;;;;3.50;99.90;;;;;;4173060;28;19929;-55
2022/02/27 02:08:26;;;;;;;;;;;3.60;99.90;;;;;;4174570;28;20454;-56
2022/02/27 02:10:28;;;;;;;;;;;3.60;99.90;;;;;;4175864;28;20019;-56
2022/02/27 02:12:31;;;;;;;;;;;3.60;99.90;;;;;;4175756;28;19970;-56
2022/02/27 02:14:33;;;;;;;;;;;3.60;99.90;;;;;;4174763;28;19955;-55
2022/02/27 02:16:45;;;;;;;;;;;3.60;99.90;;;;;;4176869;28;19933;-56
2022/02/27 02:18:47;;;;;;;;;;;3.60;99.90;;;;;;4174576;28;19956;-55
2022/02/27 02:20:49;;;;;;;;;;;3.50;99.90;;;;;;4175519;28;20288;-56
2022/02/27 02:22:51;;;;;;;;;;;3.50;99.90;;;;;;4176381;28;20496;-55
2022/02/27 02:24:53;;;;;;;;;;;3.50;99.90;;;;;;4174347;28;19933;-55
2022/02/27 02:26:55;;;;;;;;;;;3.60;99.90;;;;;;4175573;28;20301;-55
2022/02/27 02:28:57;;;;;;;;;;;3.60;99.90;;;;;;4177744;28;19928;-56
2022/02/27 02:30:59;;;;;;;;;;;3.60;99.90;;;;;;4175024;28;19946;-56
2022/02/27 02:33:01;;;;;;;;;;;3.50;99.90;;;;;;4173232;28;20734;-56
2022/02/27 02:35:03;;;;;;;;;;;3.50;99.90;;;;;;4176912;28;19928;-56
2022/02/27 02:37:05;;;;;;;;;;;3.50;99.90;;;;;;4175200;28;19987;-55
2022/02/27 02:39:08;;;;;;;;;;;3.50;99.90;;;;;;4174547;28;20349;-55
2022/02/27 02:41:10;;;;;;;;;;;3.50;99.90;;;;;;4175723;28;19929;-56
2022/02/27 02:43:13;;;;;;;;;;;3.50;99.90;;;;;;4174828;28;19933;-56
2022/02/27 02:45:15;;;;;;;;;;;3.50;99.90;;;;;;4174520;28;19925;-55
2022/02/27 02:47:17;;;;;;;;;;;3.60;99.90;;;;;;4177118;28;19932;-56
2022/02/27 02:49:19;;;;;;;;;;;3.50;99.90;;;;;;4172540;28;19929;-56
2022/02/27 02:51:21;;;;;;;;;;;3.50;99.90;;;;;;4175368;28;20416;-55
2022/02/27 02:53:32;;;;;;;;;;;3.50;99.90;;;;;;4176744;28;19967;-56
2022/02/27 02:55:34;;;;;;;;;;;3.50;99.90;;;;;;4174842;28;20427;-56
2022/02/27 02:57:36;;;;;;;;;;;3.60;99.90;;;;;;4175891;28;19951;-55
2022/02/27 02:59:38;;;;;;;;;;;3.50;99.90;;;;;;4175440;28;20007;-55
2022/02/27 03:01:40;;;;;;;;;;;3.60;99.90;;;;;;4174341;28;20346;-55
2022/02/27 03:03:43;;;;;;;;;;;3.50;99.90;;;;;;4175863;28;19940;-56
2022/02/27 03:05:45;;;;;;;;;;;3.50;99.90;;;;;;4176422;28;20031;-56
2022/02/27 03:07:47;;;;;;;;;;;3.50;99.90;;;;;;4174549;28;19952;-56
2022/02/27 03:09:49;;;;;;;;;;;3.50;99.90;;;;;;4173580;28;20373;-56
2022/02/27 03:11:51;;;;;;;;;;;3.50;99.90;;;;;;4165982;28;19937;-54
2022/02/27 03:13:59;;;;;;;;;;;3.50;99.90;;;;;;4167267;28;19963;-55
2022/02/27 03:16:01;;;;;;;;;;;3.40;99.90;;;;;;4176525;28;19928;-55
2022/02/27 03:18:03;;;;;;;;;;;3.40;99.90;;;;;;4170021;28;19929;-56
2022/02/27 03:20:05;;;;;;;;;;;3.40;99.90;;;;;;4174677;28;19932;-56
2022/02/27 03:22:07;;;;;;;;;;;3.30;99.90;;;;;;4175699;28;19929;-57
2022/02/27 03:24:09;;;;;;;;;;;3.30;99.90;;;;;;4167302;28;19929;-55
2022/02/27 03:26:11;;;;;;;;;;;3.30;99.90;;;;;;4165024;28;19968;-56
2022/02/27 03:28:13;;;;;;;;;;;3.40;99.90;;;;;;4173956;28;20514;-55
2022/02/27 03:30:15;;;;;;;;;;;3.40;99.90;;;;;;4173975;28;19925;-55
2022/02/27 03:32:17;;;;;;;;;;;3.40;99.90;;;;;;4173958;28;19924;-55
2022/02/27 03:34:20;;;;;;;;;;;3.40;99.90;;;;;;4165581;28;19971;-56
2022/02/27 03:36:22;;;;;;;;;;;3.30;99.90;;;;;;4173207;28;20464;-55
2022/02/27 03:38:24;;;;;;;;;;;3.40;99.90;;;;;;4174167;28;20007;-54
2022/02/27 03:40:26;;;;;;;;;;;3.40;99.90;;;;;;4171171;28;19978;-56
2022/02/27 03:42:27;;;;;;;;;;;3.40;99.90;;;;;;4173542;28;20381;-56
2022/02/27 03:44:29;;;;;;;;;;;3.40;99.90;;;;;;4165172;28;19925;-56
2022/02/27 03:46:34;;;;;;;;;;;3.30;99.90;;;;;;4176622;28;19925;-55
2022/02/27 03:48:36;;;;;;;;;;;3.40;99.90;;;;;;4173721;28;20367;-55
2022/02/27 03:50:38;;;;;;;;;;;3.30;99.90;;;;;;4175025;28;19928;-56
2022/02/27 03:52:41;;;;;;;;;;;3.40;99.90;;;;;;4171374;28;20345;-56
2022/02/27 03:54:42;;;;;;;;;;;3.30;99.90;;;;;;4168620;28;19964;-55
2022/02/27 03:56:44;;;;;;;;;;;3.30;99.90;;;;;;4174663;28;19959;-55
2022/02/27 03:58:46;;;;;;;;;;;3.10;99.90;;;;;;4176210;28;19977;-55
2022/02/27 04:00:48;;;;;;;;;;;3.10;99.90;;;;;;4174860;28;19929;-57
2022/02/27 04:02:53;;;;;;;;;;;3.00;99.90;;;;;;4174963;28;19929;-56
2022/02/27 04:04:55;;;;;;;;;;;3.00;99.90;;;;;;4178091;28;20392;-55
2022/02/27 04:06:57;;;;;;;;;;;3.10;99.90;;;;;;4176324;28;19924;-56
2022/02/27 04:08:58;;;;;;;;;;;3.10;99.90;;;;;;4174018;28;19932;-56
2022/02/27 04:11:00;;;;;;;;;;;3.10;99.90;;;;;;4179439;28;19928;-55
2022/02/27 04:13:03;;;;;;;;;;;3.10;99.90;;;;;;4177059;28;19929;-56
2022/02/27 04:15:05;;;;;;;;;;;3.10;99.90;;;;;;4175366;28;19929;-57
2022/02/27 04:17:07;;;;;;;;;;;3.00;99.90;;;;;;4178224;28;19991;-56
2022/02/27 04:19:09;;;;;;;;;;;2.90;99.90;;;;;;4172241;28;19925;-56
2022/02/27 04:21:11;;;;;;;;;;;2.80;99.90;;;;;;4179244;28;19929;-56
2022/02/27 04:23:13;;;;;;;;;;;2.70;99.90;;;;;;4177923;28;19929;-56
2022/02/27 04:25:15;;;;;;;;;;;2.70;99.90;;;;;;4177379;28;19936;-56
2022/02/27 04:27:17;;;;;;;;;;;2.60;99.90;;;;;;4178249;28;19964;-56
2022/02/27 04:29:19;;;;;;;;;;;2.50;99.90;;;;;;4167569;28;19929;-56
2022/02/27 04:31:20;;;;;;;;;;;2.60;99.90;;;;;;4169112;28;19924;-56
2022/02/27 04:33:22;;;;;;;;;;;2.80;99.90;;;;;;4178965;28;19935;-57
2022/02/27 04:35:25;;;;;;;;;;;2.80;99.90;;;;;;4177957;28;20377;-56
2022/02/27 04:37:27;;;;;;;;;;;2.80;99.90;;;;;;4176612;28;19993;-56
2022/02/27 04:39:29;;;;;;;;;;;2.80;99.90;;;;;;4179276;28;19925;-56
2022/02/27 04:41:31;;;;;;;;;;;2.70;99.90;;;;;;4177583;28;19949;-56
2022/02/27 04:43:33;;;;;;;;;;;2.80;99.90;;;;;;4176926;28;19971;-56
2022/02/27 04:45:37;;;;;;;;;;;2.70;99.90;;;;;;4162853;28;19932;-56
2022/02/27 04:47:41;;;;;;;;;;;2.70;99.90;;;;;;4174641;28;20649;-57
2022/02/27 04:49:43;;;;;;;;;;;2.60;99.90;;;;;;4174481;28;19940;-57
2022/02/27 04:51:45;;;;;;;;;;;2.60;99.90;;;;;;4179454;28;19929;-56
2022/02/27 04:53:49;;;;;;;;;;;2.50;99.90;;;;;;4172714;28;19925;-57
2022/02/27 04:55:51;;;;;;;;;;;2.60;99.90;;;;;;4175959;28;19924;-57
2022/02/27 04:57:53;;;;;;;;;;;2.60;99.90;;;;;;4178033;28;20568;-56
2022/02/27 04:59:55;;;;;;;;;;;2.60;99.90;;;;;;4169709;28;19991;-57
2022/02/27 05:01:57;;;;;;;;;;;2.50;99.90;;;;;;4165725;28;20448;-58
2022/02/27 05:03:59;;;;;;;;;;;2.40;99.90;;;;;;4164048;28;19968;-57
2022/02/27 05:06:01;;;;;;;;;;;2.30;99.90;;;;;;4169864;28;19925;-58
2022/02/27 05:08:03;;;;;;;;;;;2.20;99.90;;;;;;4171572;28;19949;-58
2022/02/27 05:10:08;;;;;;;;;;;2.20;99.90;;;;;;4166307;28;19929;-58
2022/02/27 05:12:10;;;;;;;;;;;2.20;99.90;;;;;;4173839;28;19955;-58
2022/02/27 05:14:14;;;;;;;;;;;2.30;99.90;;;;;;4176800;28;19933;-58
2022/02/27 05:16:15;;;;;;;;;;;2.30;99.90;;;;;;4169942;28;19971;-57
2022/02/27 05:18:17;;;;;;;;;;;2.40;99.90;;;;;;4171549;28;19932;-58
2022/02/27 05:20:19;;;;;;;;;;;2.40;99.90;;;;;;4169880;28;19963;-58
2022/02/27 05:22:21;;;;;;;;;;;2.50;99.90;;;;;;4169852;28;19925;-58
2022/02/27 05:24:23;;;;;;;;;;;2.50;99.90;;;;;;4169204;28;19933;-58
2022/02/27 05:26:25;;;;;;;;;;;2.60;99.90;;;;;;4175390;28;19929;-59
2022/02/27 05:28:27;;;;;;;;;;;2.60;99.90;;;;;;4170972;28;19925;-59
2022/02/27 05:30:29;;;;;;;;;;;2.50;99.90;;;;;;4170317;28;19925;-58
2022/02/27 05:32:31;;;;;;;;;;;2.40;99.90;;;;;;4177545;28;19924;-58
2022/02/27 05:34:33;;;;;;;;;;;2.20;99.90;;;;;;4169817;28;20747;-59
2022/02/27 05:36:35;;;;;;;;;;;2.10;99.90;;;;;;4176452;28;19956;-59
2022/02/27 05:38:37;;;;;;;;;;;2.00;99.90;;;;;;4168511;28;19971;-59
2022/02/27 05:40:39;;;;;;;;;;;1.90;99.90;;;;;;4169764;28;20415;-59
2022/02/27 05:42:41;;;;;;;;;;;1.80;99.90;;;;;;4176182;28;19975;-60
2022/02/27 05:44:43;;;;;;;;;;;1.70;99.90;;;;;;4170498;28;19948;-59
2022/02/27 05:46:45;;;;;;;;;;;1.70;99.90;;;;;;4176395;28;19928;-59
2022/02/27 05:48:47;;;;;;;;;;;1.70;99.90;;;;;;4169206;28;19951;-59
2022/02/27 05:50:49;;;;;;;;;;;1.70;99.90;;;;;;4177723;28;19946;-59
2022/02/27 05:52:51;;;;;;;;;;;1.70;99.90;;;;;;4175288;28;19936;-60
2022/02/27 05:54:53;;;;;;;;;;;1.70;99.90;;;;;;4169441;28;20475;-60
2022/02/27 05:56:55;;;;;;;;;;;1.70;99.90;;;;;;4174311;28;20044;-60
2022/02/27 05:58:56;;;;;;;;;;;1.60;99.90;;;;;;4172761;28;19947;-60
2022/02/27 06:00:58;;;;;;;;;;;1.50;99.90;;;;;;4175741;28;20576;-60
2022/02/27 06:03:00;;;;;;;;;;;1.50;99.90;;;;;;4176538;28;20440;-60
2022/02/27 06:05:03;;;;;;;;;;;1.50;99.90;;;;;;4174525;28;20028;-60
2022/02/27 06:07:05;;;;;;;;;;;1.60;99.90;;;;;;4173292;28;20460;-60
2022/02/27 06:09:06;;;;;;;;;;;1.50;99.90;;;;;;4177781;28;19968;-61
2022/02/27 06:11:08;;;;;;;;;;;1.50;99.90;;;;;;4172973;28;19983;-61
2022/02/27 06:13:10;;;;;;;;;;;1.50;99.90;;;;;;4175344;28;19928;-61
2022/02/27 06:15:12;;;;;;;;;;;1.60;99.90;;;;;;4176507;28;19929;-61
2022/02/27 06:17:14;;;;;;;;;;;1.60;99.90;;;;;;4171575;28;19936;-61
2022/02/27 06:19:16;;;;;;;;;;;1.60;99.90;;;;;;4167930;28;19972;-61
2022/02/27 06:21:18;;;;;;;;;;;1.60;99.90;;;;;;4172959;28;20468;-61
2022/02/27 06:23:20;;;;;;;;;;;1.50;99.90;;;;;;4170654;28;19929;-60
2022/02/27 06:25:22;;;;;;;;;;;1.50;99.90;;;;;;4174980;28;19983;-61
2022/02/27 06:27:24;;;;;;;;;;;1.40;99.90;;;;;;4177010;28;19990;-61
2022/02/27 06:29:26;;;;;;;;;;;1.30;99.90;;;;;;4170592;28;19971;-60
2022/02/27 06:31:29;;;;;;;;;;;1.30;99.90;;;;;;4162568;28;20844;-61
2022/02/27 06:33:31;;;;;;;;;;;1.20;99.90;;;;;;4175815;28;19928;-61
2022/02/27 06:35:33;;;;;;;;;;;1.20;99.90;;;;;;4172541;28;19928;-61
2022/02/27 06:37:35;;;;;;;;;;;1.20;99.90;;;;;;4176472;28;20400;-62
2022/02/27 06:39:38;;;;;;;;;;;1.20;99.90;;;;;;4174798;28;19928;-62
2022/02/27 06:41:40;;;;;;;;;;;1.20;99.90;;;;;;4167449;28;20906;-62
2022/02/27 06:43:43;;;;;;;;;;;1.20;99.90;;;;;;4176852;28;20462;-62
2022/02/27 06:45:45;;;;;;;;;;;1.20;99.90;;;;;;4165630;28;19971;-62
2022/02/27 06:47:47;;;;;;;;;;;1.20;99.90;;;;;;4168549;28;19994;-62
2022/02/27 06:49:50;;;;;;;;;;;1.30;99.90;;;;;;4176097;28;19979;-62
2022/02/27 06:51:52;;;;;;;;;;;1.30;99.90;;;;;;4170862;28;19979;-63
2022/02/27 06:53:54;;;;;;;;;;;1.50;99.90;;;;;;4174135;28;19933;-63
2022/02/27 06:55:56;;;;;;;;;;;1.40;99.90;;;;;;4164481;28;20570;-62
2022/02/27 06:57:58;;;;;;;;;;;1.40;99.90;;;;;;4170958;28;19929;-63
2022/02/27 07:00:00;;;;;;;;;;;1.40;99.90;;;;;;4165662;28;20359;-63
2022/02/27 07:02:02;;;;;;;;;;;1.30;99.90;;;;;;4162597;28;20610;-63
2022/02/27 07:04:05;;;;;;;;;;;1.40;99.90;;;;;;4173631;28;19933;-63
2022/02/27 07:06:07;;;;;;;;;;;1.30;99.90;;;;;;4174287;28;19987;-63
2022/02/27 07:08:09;;;;;;;;;;;1.30;99.90;;;;;;4176967;28;19971;-63
2022/02/27 07:10:11;;;;;;;;;;;1.40;99.90;;;;;;4170806;28;19936;-63
2022/02/27 07:12:13;;;;;;;;;;;1.40;99.90;;;;;;4165903;28;19975;-63
2022/02/27 07:14:15;;;;;;;;;;;1.50;99.90;;;;;;4166660;28;19933;-62
2022/02/27 07:16:22;;;;;;;;;;;1.50;99.90;;;;;;4171326;28;19925;-62
2022/02/27 07:18:24;;;;;;;;;;;1.50;99.90;;;;;;4166309;28;19929;-62
2022/02/27 07:20:26;;;;;;;;;;;1.40;99.90;;;;;;4167949;28;19925;-62
2022/02/27 07:22:28;;;;;;;;;;;1.40;99.90;;;;;;4167012;28;19929;-62
2022/02/27 07:24:30;;;;;;;;;;;1.40;99.90;;;;;;4173542;28;19932;-62
2022/02/27 07:26:32;;;;;;;;;;;1.40;99.90;;;;;;4170606;28;19991;-61
2022/02/27 07:28:34;;;;;;;;;;;1.40;99.90;;;;;;4171289;28;19933;-61
2022/02/27 07:30:36;;;;;;;;;;;1.40;99.90;;;;;;4167020;28;19929;-61
2022/02/27 07:32:38;;;;;;;;;;;1.40;99.90;;;;;;4171173;28;19937;-61
2022/02/27 07:34:40;;;;;;;;;;;1.40;99.90;;;;;;4169460;28;19933;-61
2022/02/27 07:36:42;;;;;;;;;;;1.40;99.90;;;;;;4169983;28;19996;-61
2022/02/27 07:38:46;;;;;;;;;;;1.30;99.90;;;;;;4166700;28;19956;-61
2022/02/27 07:40:49;;;;;;;;;;;1.30;99.90;;;;;;4172258;28;20351;-61
2022/02/27 07:42:51;;;;;;;;;;;1.30;99.90;;;;;;4171682;28;20019;-61
2022/02/27 07:44:55;;;;;;;;;;;1.30;99.90;;;;;;4178330;28;19956;-61
2022/02/27 07:46:58;;;;;;;;;;;1.30;99.90;;;;;;4172573;28;19940;-61
2022/02/27 07:49:00;;;;;;;;;;;1.20;99.90;;;;;;4178211;28;19936;-60
2022/02/27 07:51:02;;;;;;;;;;;1.10;99.90;;;;;;4178468;28;19929;-61
2022/02/27 07:53:04;;;;;;;;;;;1.10;99.90;;;;;;4175466;28;19972;-60
2022/02/27 07:55:07;;;;;;;;;;;1.00;99.90;;;;;;4167989;28;19929;-60
2022/02/27 07:57:08;;;;;;;;;;;1.00;99.90;;;;;;4177563;28;19925;-60
2022/02/27 07:59:10;;;;;;;;;;;1.00;99.90;;;;;;4168136;28;19994;-60
2022/02/27 08:01:16;;;;;;;;;;;0.90;99.90;;;;;;4179339;28;20393;-60
2022/02/27 08:03:18;;;;;;;;;;;0.90;99.90;;;;;;4168344;28;19932;-60
2022/02/27 08:05:21;;;;;;;;;;;0.90;99.90;;;;;;4169018;28;19936;-60
2022/02/27 08:07:23;;;;;;;;;;;0.90;99.90;;;;;;4171632;28;20016;-60
2022/02/27 08:09:25;;;;;;;;;;;0.90;99.90;;;;;;4175137;28;19932;-60
2022/02/27 08:11:27;;;;;;;;;;;0.80;99.90;;;;;;4166427;28;20000;-59
2022/02/27 08:13:29;;;;;;;;;;;0.80;99.90;;;;;;4168396;28;19929;-59
2022/02/27 08:15:31;;;;;;;;;;;0.70;99.90;;;;;;4174421;28;20451;-59
2022/02/27 08:17:33;;;;;;;;;;;0.70;99.90;;;;;;4175616;28;19940;-60
2022/02/27 08:19:35;;;;;;;;;;;0.80;99.90;;;;;;4170580;28;19940;-69
2022/02/27 08:21:38;;;;;;;;;;;0.80;99.90;;;;;;4172399;28;19936;-63
2022/02/27 08:23:41;;;;;;;;;;;0.70;99.90;;;;;;4170760;28;19975;-63
2022/02/27 08:25:42;;;;;;;;;;;0.70;99.90;;;;;;4178809;28;19925;-63
2022/02/27 08:27:45;;;;;;;;;;;0.70;99.90;;;;;;4172385;28;19928;-62
2022/02/27 08:29:49;;;;;;;;;;;0.60;99.90;;;;;;4177130;28;19924;-62
2022/02/27 08:31:52;;;;;;;;;;;0.70;99.90;;;;;;4178746;28;19978;-62
2022/02/27 08:33:54;;;;;;;;;;;0.60;99.90;;;;;;4176942;28;20626;-62
2022/02/27 08:35:56;;;;;;;;;;;0.60;99.90;;;;;;4176935;28;19964;-62
2022/02/27 08:37:58;;;;;;;;;;;0.70;99.90;;;;;;4177977;28;19925;-63
2022/02/27 08:40:00;;;;;;;;;;;0.70;99.90;;;;;;4174219;28;19928;-63
2022/02/27 08:42:03;;;;;;;;;;;0.70;99.90;;;;;;4163384;28;20086;-63
2022/02/27 08:44:06;;;;;;;;;;;0.80;99.90;;;;;;4177630;28;19933;-62
2022/02/27 08:46:08;;;;;;;;;;;0.80;99.90;;;;;;4177137;28;19928;-62
2022/02/27 08:48:10;;;;;;;;;;;0.80;99.90;;;;;;4177700;28;20413;-62
2022/02/27 08:50:12;;;;;;;;;;;0.90;99.90;;;;;;4176185;28;19929;-62
2022/02/27 08:52:15;;;;;;;;;;;0.90;99.90;;;;;;4175195;28;19932;-62
2022/02/27 08:54:17;;;;;;;;;;;1.00;99.90;;;;;;4178514;28;19964;-62
2022/02/27 08:56:19;;;;;;;;;;;1.00;99.90;;;;;;4177661;28;19963;-63
2022/02/27 08:58:21;;;;;;;;;;;1.00;99.90;;;;;;4176443;28;19955;-62
2022/02/27 09:00:23;;;;;;;;;;;1.10;99.90;;;;;;4178215;28;19935;-62
2022/02/27 09:02:25;;;;;;;;;;;1.20;99.90;;;;;;4167338;28;19979;-62
2022/02/27 09:04:27;;;;;;;;;;;1.10;99.90;;;;;;4167980;28;19924;-63
2022/02/27 09:06:29;;;;;;;;;;;1.10;99.90;;;;;;4178612;28;19947;-63
2022/02/27 09:08:31;;;;;;;;;;;1.10;99.90;;;;;;4170711;28;20663;-63
2022/02/27 09:10:33;;;;;;;;;;;1.20;99.90;;;;;;4167360;28;20016;-63
2022/02/27 09:12:35;;;;;;;;;;;1.20;99.90;;;;;;4174935;28;19964;-63
2022/02/27 09:14:37;;;;;;;;;;;1.30;99.90;;;;;;4176467;28;19925;-64
2022/02/27 09:16:40;;;;;;;;;;;1.40;99.90;;;;;;4175610;28;19936;-64
2022/02/27 09:18:42;;;;;;;;;;;1.40;99.90;;;;;;4177405;28;19929;-63
2022/02/27 09:20:44;;;;;;;;;;;1.40;99.90;;;;;;4176662;28;19933;-63
2022/02/27 09:22:46;;;;;;;;;;;1.50;99.90;;;;;;4176510;28;20670;-64
2022/02/27 09:24:48;;;;;;;;;;;1.50;99.90;;;;;;4171674;28;19964;-64
2022/02/27 09:26:49;;;;;;;;;;;1.60;99.90;;;;;;4175285;28;19956;-64
2022/02/27 09:28:52;;;;;;;;;;;1.60;99.90;;;;;;4176369;28;19929;-64
2022/02/27 09:30:54;;;;;;;;;;;1.70;99.90;;;;;;4177956;28;19935;-64
2022/02/27 09:32:56;;;;;;;;;;;1.70;99.90;;;;;;4176364;28;20408;-64
2022/02/27 09:34:58;;;;;;;;;;;1.80;99.90;;;;;;4166850;28;19967;-64
2022/02/27 09:37:00;;;;;;;;;;;1.90;99.90;;;;;;4176597;28;19964;-64
2022/02/27 09:39:03;;;;;;;;;;;2.00;99.90;;;;;;4175083;28;20468;-64
2022/02/27 09:41:05;;;;;;;;;;;2.00;99.90;;;;;;4174682;28;20023;-65
2022/02/27 09:43:08;;;;;;;;;;;2.00;99.90;;;;;;4176174;28;19956;-65
2022/02/27 09:45:10;;;;;;;;;;;2.00;99.90;;;;;;4171535;28;19924;-65
2022/02/27 09:47:15;;;;;;;;;;;2.00;99.90;;;;;;4176318;28;19965;-65
2022/02/27 09:49:17;;;;;;;;;;;2.10;99.90;;;;;;4176169;28;19929;-65
2022/02/27 09:51:19;;;;;;;;;;;2.10;99.90;;;;;;4170802;28;20244;-65
2022/02/27 09:53:21;;;;;;;;;;;2.10;99.90;;;;;;4176104;28;19978;-65
2022/02/27 09:55:23;;;;;;;;;;;2.10;99.90;;;;;;4177452;28;19925;-65
2022/02/27 09:57:25;;;;;;;;;;;2.20;99.90;;;;;;4175332;28;19932;-65
2022/02/27 09:59:27;;;;;;;;;;;2.20;99.90;;;;;;4176822;28;19972;-65
2022/02/27 10:01:29;;;;;;;;;;;2.20;99.90;;;;;;4176607;28;19975;-65
2022/02/27 10:03:34;;;;;;;;;;;2.20;99.90;;;;;;4175629;28;19933;-65
2022/02/27 10:05:37;;;;;;;;;;;2.30;99.90;;;;;;4175801;28;20471;-64
2022/02/27 10:07:55;;;;;;;;;;;2.30;99.90;;;;;;4175275;28;20023;-64
2022/02/27 10:10:05;;;;;;;;;;;2.30;99.90;;;;;;4174649;28;19929;-64
2022/02/27 10:12:20;;;;;;;;;;;2.30;99.90;;;;;;4173515;28;19995;-63
2022/02/27 10:14:26;;;;;;;;;;;2.40;99.90;;;;;;4177343;28;19972;-63
2022/02/27 10:16:30;;;;;;;;;;;2.60;99.90;;;;;;4175435;28;20389;-62
2022/02/27 10:18:45;;;;;;;;;;;2.70;99.90;;;;;;4175796;28;19931;-62
2022/02/27 10:20:47;;;;;;;;;;;2.80;99.90;;;;;;4174969;28;20009;-61
2022/02/27 10:22:54;;;;;;;;;;;2.80;99.90;;;;;;4166500;28;20387;-61
2022/02/27 10:24:56;;;;;;;;;;;2.80;99.90;;;;;;4162589;28;19937;-61
2022/02/27 10:26:58;;;;;;;;;;;2.80;99.90;;;;;;4174005;28;19925;-60
2022/02/27 10:29:04;;;;;;;;;;;2.90;99.90;;;;;;4170037;28;20047;-60
2022/02/27 10:31:09;;;;;;;;;;;2.80;99.90;;;;;;4164844;28;21425;-59
2022/02/27 10:33:11;;;;;;;;;;;2.90;99.90;;;;;;4177154;28;19935;-60
2022/02/27 10:35:33;;;;;;;;;;;2.90;99.90;;;;;;4172138;28;19960;-60
2022/02/27 10:37:35;;;;;;;;;;;2.90;99.90;;;;;;4174187;28;19979;-60
2022/02/27 10:39:39;;;;;;;;;;;3.00;99.90;;;;;;4174081;28;19972;-59
2022/02/27 10:41:41;;;;;;;;;;;3.00;99.90;;;;;;4166405;28;19929;-60
2022/02/27 10:43:44;;;;;;;;;;;3.00;99.90;;;;;;4164276;28;19952;-59
2022/02/27 10:45:59;;;;;;;;;;;3.00;99.90;;;;;;4162179;28;20313;-59
2022/02/27 10:48:06;;;;;;;;;;;3.00;99.90;;;;;;4172687;28;19929;-60
2022/02/27 10:50:10;;;;;;;;;;;3.10;99.90;;;;;;4170417;28;19932;-60
2022/02/27 10:52:17;;;;;;;;;;;3.10;99.90;;;;;;4163980;28;20464;-59
2022/02/27 10:54:37;;;;;;;;;;;3.10;99.90;;;;;;4174844;28;19978;-59
2022/02/27 10:56:41;;;;;;;;;;;3.20;99.90;;;;;;4169669;28;19979;-59
2022/02/27 10:58:45;;;;;;;;;;;3.20;99.90;;;;;;4163000;28;20385;-59
2022/02/27 11:00:47;;;;;;;;;;;3.20;99.90;;;;;;4171385;28;19994;-59
2022/02/27 11:02:52;;;;;;;;;;;3.20;99.90;;;;;;4170882;28;19925;-59
2022/02/27 11:04:55;;;;;;;;;;;3.30;99.90;;;;;;4163808;28;20425;-59
2022/02/27 11:06:57;;;;;;;;;;;3.40;99.90;;;;;;4165520;28;20443;-59
2022/02/27 11:09:00;;;;;;;;;;;3.40;99.90;;;;;;4169320;28;19939;-59
2022/02/27 11:11:02;;;;;;;;;;;3.40;99.90;;;;;;4161734;28;20027;-58
2022/02/27 11:13:09;;;;;;;;;;;3.50;99.90;;;;;;4168307;28;20674;-57
2022/02/27 11:15:13;;;;;;;;;;;3.50;99.90;;;;;;4172001;28;19940;-59
2022/02/27 11:17:14;;;;;;;;;;;3.50;99.90;;;;;;4185603;28;19932;-58
2022/02/27 11:19:18;;;;;;;;;;;3.50;99.90;;;;;;4171403;28;20317;-58
2022/02/27 11:21:21;;;;;;;;;;;3.50;99.90;;;;;;4168377;28;19936;-58
2022/02/27 11:23:23;;;;;;;;;;;3.60;99.90;;;;;;4174040;28;19960;-58
2022/02/27 11:25:27;;;;;;;;;;;3.60;99.90;;;;;;4172015;28;19995;-58
2022/02/27 11:27:29;;;;;;;;;;;3.60;99.90;;;;;;4165882;28;20482;-58
2022/02/27 11:29:31;;;;;;;;;;;3.60;99.90;;;;;;4165749;28;20328;-57
2022/02/27 11:31:34;;;;;;;;;;;3.70;99.90;;;;;;4170581;28;19929;-58
2022/02/27 11:33:36;;;;;;;;;;;3.70;99.90;;;;;;4172718;28;20356;-58
2022/02/27 11:35:43;;;;;;;;;;;3.70;99.90;;;;;;4173250;28;19929;-58
2022/02/27 11:37:49;;;;;;;;;;;3.70;99.90;;;;;;4171494;28;19929;-58
2022/02/27 11:42:51;;;;;;;;;;;3.80;99.90;;;;;;4170388;28;19976;-58
2022/02/27 11:44:52;;;;;;;;;;;3.80;99.90;;;;;;4170386;28;19944;-58
2022/02/27 11:47:01;;;;;;;;;;;3.80;99.90;;;;;;4157680;28;19936;-58
2022/02/27 11:49:06;;;;;;;;;;;3.80;99.90;;;;;;4170640;28;19932;-57
2022/02/27 11:51:08;;;;;;;;;;;3.90;99.90;;;;;;4159808;28;19929;-58
2022/02/27 11:53:20;;;;;;;;;;;3.90;99.90;;;;;;4174845;28;19929;-57
2022/02/27 11:55:39;;;;;;;;;;;3.90;99.90;;;;;;4163684;28;19925;-58
2022/02/27 11:57:43;;;;;;;;;;;3.90;99.90;;;;;;4175370;28;19925;-58
2022/02/27 11:59:47;;;;;;;;;;;3.90;99.90;;;;;;4176595;28;19976;-58
2022/02/27 12:01:54;;;;;;;;;;;3.90;99.90;;;;;;4165388;28;20015;-57
2022/02/27 12:04:16;;;;;;;;;;;3.90;99.90;;;;;;4176704;28;20027;-58
2022/02/27 12:06:38;;;;;;;;;;;4.00;99.90;;;;;;4175549;28;19986;-58
2022/02/27 12:08:41;;;;;;;;;;;4.00;99.90;;;;;;4168120;28;19925;-59